createdAt,value
2022-08-05T00:02:11.441Z,18.04
2022-08-05T00:04:40.292Z,18.05
2022-08-05T00:07:27.455Z,17.98
2022-08-05T00:09:54.595Z,17.85
2022-08-05T00:12:21.514Z,17.85
2022-08-05T00:14:51.898Z,17.79
2022-08-05T00:17:20.252Z,17.70
2022-08-05T00:20:02.352Z,17.63
2022-08-05T00:22:29.839Z,17.51
2022-08-05T00:24:58.075Z,17.47
2022-08-05T00:27:35.600Z,17.52
2022-08-05T00:30:04.343Z,17.49
2022-08-05T00:32:31.096Z,17.53
2022-08-05T00:35:06.740Z,17.58
2022-08-05T00:37:51.321Z,17.63
2022-08-05T00:40:26.874Z,17.59
2022-08-05T00:43:01.166Z,17.57
2022-08-05T00:45:42.776Z,17.58
2022-08-05T00:48:12.597Z,17.49
2022-08-05T00:50:46.062Z,17.34
2022-08-05T00:53:45.396Z,17.35
2022-08-05T00:56:05.638Z,17.35
2022-08-05T00:58:34.955Z,17.35
2022-08-05T01:01:08.767Z,17.29
2022-08-05T01:03:36.079Z,17.27
2022-08-05T01:06:05.459Z,17.32
2022-08-05T01:08:43.116Z,17.29
2022-08-05T01:11:37.401Z,17.21
2022-08-05T01:14:36.395Z,17.16
2022-08-05T01:17:14.381Z,17.12
2022-08-05T01:20:01.160Z,17.15
2022-08-05T01:22:47.993Z,17.10
2022-08-05T01:25:53.353Z,17.16
2022-08-05T01:28:28.984Z,17.19
2022-08-05T01:31:09.558Z,17.16
2022-08-05T01:33:55.430Z,17.13
2022-08-05T01:36:28.083Z,17.16
2022-08-05T01:38:56.728Z,17.09
2022-08-05T01:41:31.434Z,17.04
2022-08-05T01:44:01.472Z,17.04
2022-08-05T01:46:42.174Z,17.00
2022-08-05T01:49:24.167Z,17.04
2022-08-05T01:51:58.433Z,17.07
2022-08-05T01:54:27.510Z,16.98
2022-08-05T01:58:29.946Z,16.99
2022-08-05T01:59:48.555Z,17.01
2022-08-05T02:02:16.784Z,17.07
2022-08-05T02:04:49.467Z,17.02
2022-08-05T02:07:21.843Z,17.05
2022-08-05T02:09:50.211Z,17.04
2022-08-05T02:12:25.808Z,17.02
2022-08-05T02:15:13.787Z,17.04
2022-08-05T02:18:31.138Z,17.02
2022-08-05T02:20:53.991Z,17.06
2022-08-05T02:23:33.516Z,17.00
2022-08-05T02:26:04.977Z,17.11
2022-08-05T02:28:38.415Z,17.13
2022-08-05T02:31:15.046Z,17.07
2022-08-05T02:33:48.431Z,17.05
2022-08-05T02:36:19.287Z,17.02
2022-08-05T02:38:52.782Z,17.03
2022-08-05T02:41:22.980Z,17.08
2022-08-05T02:44:02.762Z,17.14
2022-08-05T02:46:44.069Z,17.08
2022-08-05T02:49:27.481Z,17.05
2022-08-05T02:52:07.734Z,17.04
2022-08-05T02:54:37.375Z,17.07
2022-08-05T02:58:11.823Z,17.03
2022-08-05T02:59:57.713Z,16.89
2022-08-05T03:02:34.038Z,16.84
2022-08-05T03:05:02.211Z,16.84
2022-08-05T03:07:40.418Z,16.85
2022-08-05T03:10:24.501Z,16.79
2022-08-05T03:12:54.096Z,16.72
2022-08-05T03:15:23.435Z,16.76
2022-08-05T03:17:53.996Z,16.66
2022-08-05T03:20:22.465Z,16.64
2022-08-05T03:22:50.975Z,16.63
2022-08-05T03:25:33.751Z,16.59
2022-08-05T03:28:08.304Z,16.52
2022-08-05T03:30:38.251Z,16.48
2022-08-05T03:33:08.304Z,16.51
2022-08-05T03:35:40.815Z,16.48
2022-08-05T03:38:11.861Z,16.36
2022-08-05T03:40:48.423Z,16.31
2022-08-05T03:44:09.731Z,16.27
2022-08-05T03:46:05.116Z,16.26
2022-08-05T03:48:35.431Z,16.24
2022-08-05T03:52:38.732Z,16.22
2022-08-05T03:55:51.582Z,16.19
2022-08-05T03:57:16.353Z,16.16
2022-08-05T03:59:54.907Z,16.19
2022-08-05T04:02:38.934Z,16.20
2022-08-05T04:05:14.982Z,16.16
2022-08-05T04:07:57.096Z,16.18
2022-08-05T04:10:28.311Z,16.13
2022-08-05T04:12:59.320Z,16.11
2022-08-05T04:15:28.013Z,16.19
2022-08-05T04:18:03.962Z,16.33
2022-08-05T04:20:34.601Z,16.37
2022-08-05T04:23:01.613Z,16.40
2022-08-05T04:25:56.500Z,16.47
2022-08-05T04:28:15.204Z,16.50
2022-08-05T04:30:43.979Z,16.46
2022-08-05T04:33:10.556Z,16.50
2022-08-05T04:36:16.661Z,16.52
2022-08-05T04:38:23.674Z,16.56
2022-08-05T04:41:06.581Z,16.56
2022-08-05T04:43:34.332Z,16.63
2022-08-05T04:46:05.045Z,16.73
2022-08-05T04:48:32.108Z,16.72
2022-08-05T04:51:03.287Z,16.79
2022-08-05T04:53:36.601Z,16.88
2022-08-05T04:56:32.748Z,16.92
2022-08-05T04:58:53.362Z,17.00
2022-08-05T05:02:03.996Z,17.14
2022-08-05T05:04:06.704Z,17.10
2022-08-05T05:06:40.440Z,17.22
2022-08-05T05:09:14.181Z,18.07
2022-08-05T05:11:54.065Z,17.89
2022-08-05T05:14:27.990Z,17.72
2022-08-05T05:16:59.276Z,17.71
2022-08-05T05:19:27.398Z,17.73
2022-08-05T05:22:22.517Z,17.77
2022-08-05T05:24:58.789Z,17.83
2022-08-05T05:27:45.068Z,17.88
2022-08-05T05:30:29.372Z,17.91
2022-08-05T05:33:00.747Z,17.97
2022-08-05T05:35:38.119Z,18.09
2022-08-05T05:38:13.242Z,18.23
2022-08-05T05:40:49.894Z,18.35
2022-08-05T05:43:27.931Z,18.45
2022-08-05T05:46:10.772Z,18.59
2022-08-05T05:48:44.012Z,18.69
2022-08-05T05:51:15.454Z,18.81
2022-08-05T05:53:54.046Z,18.90
2022-08-05T05:56:32.307Z,19.02
2022-08-05T05:59:07.763Z,19.09
2022-08-05T06:01:40.343Z,19.21
2022-08-05T06:04:13.183Z,19.30
2022-08-05T06:06:46.427Z,19.39
2022-08-05T06:09:17.280Z,19.42
2022-08-05T06:12:01.659Z,19.59
2022-08-05T06:14:30.694Z,19.85
2022-08-05T06:16:58.301Z,20.14
2022-08-05T06:19:33.996Z,20.15
2022-08-05T06:22:02.563Z,20.22
2022-08-05T06:24:30.166Z,20.30
2022-08-05T06:26:58.283Z,20.44
2022-08-05T06:29:46.736Z,20.53
2022-08-05T06:32:21.013Z,20.66
2022-08-05T06:34:53.500Z,20.72
2022-08-05T06:37:55.547Z,20.85
2022-08-05T06:40:10.529Z,21.05
2022-08-05T06:42:39.859Z,21.16
2022-08-05T06:45:08.882Z,21.17
2022-08-05T06:48:36.023Z,21.19
2022-08-05T06:50:23.544Z,21.28
2022-08-05T06:52:58.672Z,21.40
2022-08-05T06:55:36.323Z,21.49
2022-08-05T06:58:20.116Z,21.66
2022-08-05T07:00:51.528Z,21.85
2022-08-05T07:03:18.752Z,21.99
2022-08-05T07:05:46.232Z,22.07
2022-08-05T07:08:13.609Z,22.15
2022-08-05T07:10:52.541Z,22.35
2022-08-05T07:13:58.057Z,22.61
2022-08-05T07:18:00.161Z,22.77
2022-08-05T07:20:16.857Z,22.78
2022-08-05T07:22:17.808Z,22.91
2022-08-05T07:24:52.620Z,22.91
2022-08-05T07:27:21.579Z,22.98
2022-08-05T07:30:24.299Z,23.07
2022-08-05T07:32:35.835Z,23.16
2022-08-05T07:35:55.969Z,23.27
2022-08-05T07:37:54.481Z,23.40
2022-08-05T07:40:31.377Z,23.46
2022-08-05T07:42:59.843Z,23.63
2022-08-05T07:45:57.135Z,23.76
2022-08-05T07:49:00.426Z,23.83
2022-08-05T07:51:05.447Z,23.96
2022-08-05T07:53:50.374Z,24.09
2022-08-05T07:57:00.102Z,24.16
2022-08-05T07:59:04.933Z,24.27
2022-08-05T08:01:35.039Z,24.39
2022-08-05T08:04:08.092Z,24.51
2022-08-05T08:06:34.723Z,24.54
2022-08-05T08:09:01.396Z,24.62
2022-08-05T08:11:47.429Z,24.71
2022-08-05T08:14:18.195Z,24.77
2022-08-05T08:16:50.839Z,24.86
2022-08-05T08:20:10.201Z,24.94
2022-08-05T08:22:04.851Z,25.08
2022-08-05T08:24:51.729Z,25.37
2022-08-05T08:27:18.215Z,25.45
2022-08-05T08:30:05.971Z,25.51
2022-08-05T08:32:33.829Z,25.63
2022-08-05T08:35:07.509Z,25.75
2022-08-05T08:37:40.336Z,25.83
2022-08-05T08:40:11.908Z,25.99
2022-08-05T08:42:50.999Z,26.12
2022-08-05T08:45:26.528Z,26.26
2022-08-05T08:48:07.050Z,26.23
2022-08-05T08:51:03.133Z,26.26
2022-08-05T08:53:31.231Z,26.26
2022-08-05T08:56:04.965Z,26.28
2022-08-05T08:58:43.644Z,26.39
2022-08-05T09:01:17.144Z,26.55
2022-08-05T09:03:54.218Z,26.43
2022-08-05T09:06:27.795Z,26.48
2022-08-05T09:08:56.257Z,26.56
2022-08-05T09:11:52.140Z,26.61
2022-08-05T09:14:58.276Z,26.62
2022-08-05T09:16:57.892Z,26.69
2022-08-05T09:19:28.061Z,26.78
2022-08-05T09:22:17.761Z,26.85
2022-08-05T09:24:59.742Z,26.85
2022-08-05T09:28:04.105Z,26.96
2022-08-05T09:30:24.190Z,26.98
2022-08-05T09:32:51.570Z,26.96
2022-08-05T09:35:26.775Z,27.05
2022-08-05T09:38:16.802Z,27.39
2022-08-05T09:40:44.612Z,27.51
2022-08-05T09:43:40.835Z,27.49
2022-08-05T09:46:28.074Z,27.53
2022-08-05T09:49:07.264Z,27.59
2022-08-05T09:51:42.398Z,27.72
2022-08-05T09:54:09.465Z,27.76
2022-08-05T09:56:38.097Z,27.82
2022-08-05T09:59:06.042Z,27.87
2022-08-05T10:01:45.794Z,27.94
2022-08-05T10:04:13.965Z,27.94
2022-08-05T10:06:58.836Z,28.00
2022-08-05T10:09:28.053Z,27.93
2022-08-05T10:12:18.515Z,28.02
2022-08-05T10:14:54.719Z,28.25
2022-08-05T10:17:37.229Z,28.45
2022-08-05T10:20:11.040Z,28.45
2022-08-05T10:22:43.158Z,28.43
2022-08-05T10:25:19.054Z,28.28
2022-08-05T10:28:13.599Z,28.37
2022-08-05T10:32:46.780Z,28.29
2022-08-05T10:33:23.459Z,28.24
2022-08-05T10:35:59.056Z,28.34
2022-08-05T10:38:27.642Z,28.44
2022-08-05T10:41:01.376Z,28.52
2022-08-05T10:43:35.768Z,28.55
2022-08-05T10:46:06.203Z,28.65
2022-08-05T10:48:52.531Z,28.74
2022-08-05T10:51:28.290Z,28.73
2022-08-05T10:53:58.429Z,28.53
2022-08-05T10:56:29.573Z,28.41
2022-08-05T10:59:12.426Z,28.29
2022-08-05T11:01:55.438Z,28.32
2022-08-05T11:04:31.805Z,28.25
2022-08-05T11:07:05.595Z,28.20
2022-08-05T11:09:45.385Z,28.41
2022-08-05T11:12:31.661Z,28.45
2022-08-05T11:15:20.489Z,28.57
2022-08-05T11:17:57.696Z,28.69
2022-08-05T11:20:34.952Z,28.71
2022-08-05T11:23:21.559Z,28.81
2022-08-05T11:26:09.966Z,28.87
2022-08-05T11:28:37.426Z,28.86
2022-08-05T11:31:06.473Z,28.69
2022-08-05T11:33:47.739Z,28.53
2022-08-05T11:36:34.257Z,28.39
2022-08-05T11:39:06.313Z,28.45
2022-08-05T11:42:01.264Z,28.64
2022-08-05T11:44:53.198Z,28.75
2022-08-05T11:47:15.301Z,28.70
2022-08-05T11:49:49.728Z,28.61
2022-08-05T11:52:29.244Z,28.75
2022-08-05T11:54:56.720Z,28.80
2022-08-05T11:57:28.327Z,28.87
2022-08-05T11:59:57.705Z,28.88
2022-08-05T12:02:31.409Z,28.90
2022-08-05T12:05:00.077Z,28.90
2022-08-05T12:08:08.779Z,28.96
2022-08-05T12:10:18.271Z,28.97
2022-08-05T12:12:46.614Z,29.01
2022-08-05T12:15:38.767Z,29.13
2022-08-05T12:18:10.786Z,29.18
2022-08-05T12:20:39.100Z,29.27
2022-08-05T12:23:09.911Z,29.42
2022-08-05T12:25:56.678Z,29.51
2022-08-05T12:28:32.801Z,29.52
2022-08-05T12:31:02.240Z,29.57
2022-08-05T12:33:37.172Z,29.65
2022-08-05T12:36:09.594Z,29.71
2022-08-05T12:38:41.173Z,29.89
2022-08-05T12:41:17.010Z,29.84
2022-08-05T12:43:55.426Z,29.88
2022-08-05T12:46:32.576Z,29.99
2022-08-05T12:49:14.339Z,30.05
2022-08-05T12:52:12.322Z,30.19
2022-08-05T12:54:35.691Z,30.43
2022-08-05T12:57:05.209Z,30.53
2022-08-05T13:01:56.850Z,30.43
2022-08-05T13:02:37.191Z,30.63
2022-08-05T13:05:07.165Z,30.86
2022-08-05T13:07:59.485Z,30.87
2022-08-05T13:10:20.839Z,31.03
2022-08-05T13:12:51.032Z,31.15
2022-08-05T13:15:41.632Z,31.27
2022-08-05T13:18:19.495Z,31.56
2022-08-05T13:20:46.698Z,31.71
2022-08-05T13:23:13.603Z,31.86
2022-08-05T13:25:52.543Z,32.03
2022-08-05T13:28:26.593Z,32.30
2022-08-05T13:30:57.212Z,32.49
2022-08-05T13:34:22.683Z,32.56
2022-08-05T13:36:11.210Z,32.94
2022-08-05T13:38:42.540Z,33.07
2022-08-05T13:41:09.816Z,33.32
2022-08-05T13:43:45.165Z,33.60
2022-08-05T13:46:43.644Z,33.62
2022-08-05T13:49:10.343Z,33.80
2022-08-05T13:51:40.874Z,34.04
2022-08-05T13:54:11.889Z,33.97
2022-08-05T13:56:39.711Z,33.97
2022-08-05T13:59:19.633Z,34.12
2022-08-05T14:01:59.068Z,34.22
2022-08-05T14:04:49.586Z,34.08
2022-08-05T14:07:25.634Z,34.29
2022-08-05T14:10:08.205Z,34.57
2022-08-05T14:12:35.346Z,34.67
2022-08-05T14:15:05.830Z,34.72
2022-08-05T14:17:48.547Z,34.93
2022-08-05T14:20:18.326Z,35.15
2022-08-05T14:22:49.923Z,35.19
2022-08-05T14:25:21.554Z,35.33
2022-08-05T14:27:49.647Z,35.27
2022-08-05T14:30:20.842Z,35.32
2022-08-05T14:32:49.199Z,35.32
2022-08-05T14:35:20.575Z,35.44
2022-08-05T14:37:52.179Z,35.74
2022-08-05T14:40:21.689Z,36.00
2022-08-05T14:42:51.287Z,35.83
2022-08-05T14:45:18.826Z,35.95
2022-08-05T14:48:02.912Z,36.05
2022-08-05T14:50:32.063Z,36.14
2022-08-05T14:52:59.784Z,36.12
2022-08-05T14:55:38.663Z,36.17
2022-08-05T14:58:11.848Z,36.16
2022-08-05T15:00:58.022Z,36.03
2022-08-05T15:03:25.559Z,36.22
2022-08-05T15:06:08.380Z,36.20
2022-08-05T15:09:01.073Z,36.01
2022-08-05T15:11:51.809Z,36.15
2022-08-05T15:14:11.901Z,36.03
2022-08-05T15:16:58.427Z,36.19
2022-08-05T15:19:26.352Z,36.19
2022-08-05T15:21:52.913Z,36.20
2022-08-05T15:24:19.802Z,36.21
2022-08-05T15:26:46.569Z,36.20
2022-08-05T15:29:15.292Z,35.99
2022-08-05T15:31:52.429Z,36.09
2022-08-05T15:34:32.470Z,36.22
2022-08-05T15:37:02.359Z,36.35
2022-08-05T15:41:01.027Z,36.34
2022-08-05T15:42:54.482Z,36.47
2022-08-05T15:45:06.141Z,37.26
2022-08-05T15:47:35.953Z,38.53
2022-08-05T15:50:03.600Z,39.49
2022-08-05T15:52:53.499Z,39.71
2022-08-05T15:55:19.406Z,39.69
2022-08-05T15:57:51.895Z,38.98
2022-08-05T16:00:26.159Z,37.51
2022-08-05T16:03:02.194Z,36.88
2022-08-05T16:05:28.857Z,36.42
2022-08-05T16:07:55.395Z,36.14
2022-08-05T16:10:25.598Z,36.00
2022-08-05T16:12:53.458Z,35.87
2022-08-05T16:15:22.742Z,35.53
2022-08-05T16:17:57.478Z,35.66
2022-08-05T16:20:25.218Z,35.49
2022-08-05T16:22:51.790Z,35.37
2022-08-05T16:25:18.359Z,35.23
2022-08-05T16:27:59.879Z,35.34
2022-08-05T16:30:29.330Z,35.25
2022-08-05T16:32:56.231Z,35.07
2022-08-05T16:35:27.922Z,34.92
2022-08-05T16:38:15.486Z,34.87
2022-08-05T16:40:51.731Z,34.81
2022-08-05T16:43:23.727Z,34.93
2022-08-05T16:46:04.378Z,34.77
2022-08-05T16:48:36.491Z,34.74
2022-08-05T16:51:03.803Z,34.54
2022-08-05T16:54:05.332Z,34.35
2022-08-05T16:56:26.813Z,34.11
2022-08-05T16:58:54.673Z,33.53
2022-08-05T17:01:22.696Z,32.89
2022-08-05T17:03:52.167Z,32.44
2022-08-05T17:06:19.127Z,32.06
2022-08-05T17:08:53.645Z,31.74
2022-08-05T17:11:23.955Z,31.43
2022-08-05T17:14:00.153Z,31.15
2022-08-05T17:16:33.349Z,30.90
2022-08-05T17:19:00.667Z,30.75
2022-08-05T17:21:35.556Z,30.51
2022-08-05T17:24:19.600Z,30.23
2022-08-05T17:26:50.041Z,30.06
2022-08-05T17:29:17.370Z,29.72
2022-08-05T17:31:58.191Z,29.56
2022-08-05T17:34:29.765Z,29.31
2022-08-05T17:36:58.492Z,29.01
2022-08-05T17:39:33.139Z,28.94
2022-08-05T17:42:19.628Z,28.73
2022-08-05T17:44:50.416Z,28.53
2022-08-05T17:47:22.231Z,28.38
2022-08-05T17:50:00.052Z,28.30
2022-08-05T17:52:32.339Z,28.13
2022-08-05T17:54:59.435Z,29.60
2022-08-05T17:57:26.214Z,30.15
2022-08-05T18:00:03.491Z,30.21
2022-08-05T18:02:33.397Z,30.20
2022-08-05T18:05:03.157Z,30.19
2022-08-05T18:07:41.618Z,30.13
2022-08-05T18:10:11.459Z,30.07
2022-08-05T18:12:40.903Z,29.98
2022-08-05T18:15:08.797Z,29.91
2022-08-05T18:17:58.857Z,29.68
2022-08-05T18:20:29.180Z,29.53
2022-08-05T18:23:00.611Z,29.49
2022-08-05T18:25:38.839Z,29.50
2022-08-05T18:28:06.073Z,28.10
2022-08-05T18:30:33.757Z,27.63
2022-08-05T18:33:01.421Z,27.30
2022-08-05T18:36:01.173Z,27.15
2022-08-05T18:38:19.397Z,26.98
2022-08-05T18:41:55.478Z,26.87
2022-08-05T18:43:43.132Z,26.77
2022-08-05T18:46:19.756Z,26.63
2022-08-05T18:48:51.965Z,26.50
2022-08-05T18:52:05.983Z,26.43
2022-08-05T18:54:30.942Z,26.37
2022-08-05T18:57:01.170Z,26.29
2022-08-05T18:59:43.127Z,26.12
2022-08-05T19:02:37.996Z,26.04
2022-08-05T19:06:03.475Z,25.97
2022-08-05T19:07:58.089Z,25.92
2022-08-05T19:10:28.434Z,25.87
2022-08-05T19:12:58.337Z,25.68
2022-08-05T19:15:58.950Z,25.56
2022-08-05T19:18:20.712Z,25.52
2022-08-05T19:20:51.674Z,25.43
2022-08-05T19:23:22.791Z,25.35
2022-08-05T19:26:09.182Z,25.32
2022-08-05T19:28:37.948Z,25.22
2022-08-05T19:31:09.237Z,25.21
2022-08-05T19:33:40.632Z,25.12
2022-08-05T19:36:17.028Z,24.97
2022-08-05T19:38:45.454Z,24.87
2022-08-05T19:41:12.470Z,24.85
2022-08-05T19:44:06.580Z,24.89
2022-08-05T19:46:30.315Z,24.78
2022-08-05T19:49:03.320Z,24.63
2022-08-05T19:52:04.983Z,24.59
2022-08-05T19:54:26.667Z,24.57
2022-08-05T19:56:59.542Z,24.48
2022-08-05T19:59:56.618Z,24.32
2022-08-05T20:02:17.610Z,24.21
2022-08-05T20:04:46.457Z,24.18
2022-08-05T20:07:15.447Z,24.19
2022-08-05T20:09:53.905Z,24.16
2022-08-05T20:12:23.734Z,24.00
2022-08-05T20:14:52.041Z,23.90
2022-08-05T20:17:23.748Z,23.95
2022-08-05T20:19:56.868Z,23.91
2022-08-05T20:22:26.804Z,23.93
2022-08-05T20:24:57.470Z,23.87
2022-08-05T20:27:27.422Z,23.67
2022-08-05T20:30:10.245Z,23.51
2022-08-05T20:32:37.390Z,23.40
2022-08-05T20:35:12.001Z,23.30
2022-08-05T20:38:06.806Z,23.22
2022-08-05T20:40:26.792Z,23.10
2022-08-05T20:42:53.732Z,23.09
2022-08-05T20:45:56.578Z,23.00
2022-08-05T20:48:16.562Z,22.88
2022-08-05T20:50:45.556Z,22.64
2022-08-05T20:53:15.960Z,22.50
2022-08-05T20:56:08.284Z,22.42
2022-08-05T20:58:35.868Z,22.50
2022-08-05T21:01:03.786Z,22.41
2022-08-05T21:03:34.563Z,22.28
2022-08-05T21:06:01.909Z,22.38
2022-08-05T21:08:41.405Z,22.41
2022-08-05T21:11:11.685Z,22.47
2022-08-05T21:13:47.909Z,22.53
2022-08-05T21:16:22.838Z,22.58
2022-08-05T21:18:55.932Z,22.48
2022-08-05T21:21:26.983Z,22.37
2022-08-05T21:24:13.138Z,22.22
2022-08-05T21:26:41.325Z,22.28
2022-08-05T21:29:10.058Z,22.30
2022-08-05T21:31:43.330Z,22.31
2022-08-05T21:34:10.365Z,22.31
2022-08-05T21:36:37.402Z,22.30
2022-08-05T21:39:04.154Z,22.18
2022-08-05T21:41:35.630Z,22.09
2022-08-05T21:44:04.344Z,22.11
2022-08-05T21:46:34.627Z,22.07
2022-08-05T21:49:02.237Z,21.98
2022-08-05T21:52:15.715Z,21.98
2022-08-05T21:54:18.163Z,22.00
2022-08-05T21:57:15.490Z,21.95
2022-08-05T22:00:01.935Z,22.02
2022-08-05T22:02:31.961Z,21.91
2022-08-05T22:04:58.795Z,21.84
2022-08-05T22:07:54.233Z,21.85
2022-08-05T22:10:13.133Z,21.81
2022-08-05T22:12:44.932Z,21.85
2022-08-05T22:16:02.461Z,21.77
2022-08-05T22:18:04.274Z,21.61
2022-08-05T22:20:30.916Z,21.66
2022-08-05T22:23:21.675Z,21.68
2022-08-05T22:26:10.353Z,21.68
2022-08-05T22:28:38.646Z,21.69
2022-08-05T22:31:05.970Z,21.66
2022-08-05T22:33:55.797Z,21.70
2022-08-05T22:36:19.740Z,21.66
2022-08-05T22:38:50.996Z,21.69
2022-08-05T22:42:05.123Z,21.70
2022-08-05T22:44:05.057Z,21.60
2022-08-05T22:46:31.961Z,21.50
2022-08-05T22:48:59.090Z,21.52
2022-08-05T22:52:02.581Z,21.47
2022-08-05T22:54:12.342Z,21.43
2022-08-05T22:56:39.858Z,21.50
2022-08-05T22:59:44.157Z,21.54
2022-08-05T23:02:05.836Z,21.52
2022-08-05T23:04:34.166Z,21.43
2022-08-05T23:07:01.117Z,21.37
2022-08-05T23:09:53.418Z,21.32
2022-08-05T23:12:16.388Z,21.21
2022-08-05T23:14:43.627Z,21.24
2022-08-05T23:17:34.601Z,21.31
2022-08-05T23:20:06.007Z,21.25
2022-08-05T23:22:42.849Z,21.17
2022-08-05T23:25:09.460Z,21.11
2022-08-05T23:27:57.738Z,21.16
2022-08-05T23:30:27.114Z,21.12
2022-08-05T23:32:57.558Z,21.13
2022-08-05T23:35:24.204Z,21.14
2022-08-05T23:37:55.053Z,21.17
2022-08-05T23:40:27.126Z,21.20
2022-08-05T23:42:54.073Z,21.16
2022-08-05T23:45:23.536Z,21.06
2022-08-05T23:47:50.416Z,21.05
2022-08-05T23:50:20.656Z,21.04
2022-08-05T23:52:49.963Z,21.03
2022-08-05T23:55:18.189Z,20.99
2022-08-05T23:57:51.236Z,20.83
